Bob Hope Airport Burbank US
ICAO: KBUR
IATA: BUR
Category: Medium
Scheduled Services: Yes

Elevation: 778 ft
TransAlt. 18000 ft.

Airport Communications:
SOCAL APP/DEP:120.4
ATIS:134.5
CLNC DEL:118
GND:123.9
HAWTHORNE RDO:122.35
TWR:118.7
UNICOM:122.95

KBUR Zoom In..

Runways:

(A) RW 08 length 5802 ft width 150 ft
ILS 109.50 / hdg 76

(B) RW 15 length 6885 ft width 150 ft
---- / hdg 152

(C) RW 26 length 5802 ft width 150 ft
---- / hdg 256

(D) RW 33 length 6885 ft width 150 ft
---- / hdg 332

Location; KBUR
Day. 25 / Time. 12.10 Zulu
* Altimeter: 30.04
* Temperature: 12° c. 53.6°f.
* Wind from: 130° Speed 04 kn.
Dewpoint: 12° c.
Visibility: 3 Statute Miles.
Clouds: Broken 600 ft.
Conditions: Mist.

KBUR 251210Z 13004KT 3SM BR BKN006 12/12 A3004 RMK AO2 T01220117 $


Wind From 130°
Speed 04 kn.

  YouTube Music Video
 
jpsmedia.com for Web Design  worldairports.se 2018   terms of use